Have a Safe July 4th! 

Flight Track Log - Related Links

Times and Time Zones

All times are in EDT time to prevent confusion due to time zone crossing. See the SWA104 flight status page for this flight to view local times or setup timezone preferences in your user account.

Time Position Orientation Groundspeed Altitude Reporting Facility
EDT Latitude Longitude Course Direction KTS MPH feet Rate Location/Type
Tue 09:16:24 PM 42.9167 -71.4333 199° South 139 160 1,400  Level KA90
Tue 09:17:26 PM 42.8733 -71.4542 199° South 199 229 4,000 3,098 Climbing Boston Center
Tue 09:18:26 PM 42.8667 -71.3978 99° East 237 273 7,700 3,636 Climbing Boston Center
Tue 09:19:38 PM 42.9158 -71.3203 49° Northeast 192 221 12,000 4,000 Climbing Boston Center
Tue 09:20:38 PM 42.9486 -71.2458 59° Northeast 215 247 16,500 3,400 Climbing Boston Center
Tue 09:21:38 PM 42.8708 -71.1964 155° Southeast 234 269 18,800 2,650 Climbing Boston Center
Tue 09:22:38 PM 42.7811 -71.1869 176° South 265 305 21,800 3,100 Climbing Boston Center
Tue 09:23:38 PM 42.6686 -71.1808 178° South 346 398 25,000 3,000 Climbing Boston Center
Tue 09:24:38 PM 42.5536 -71.1661 175° South 393 452 27,800 1,500 Climbing Boston Center
Tue 09:25:38 PM 42.4353 -71.1883 188° South 417 480 28,000 100 Climbing Boston Center
Tue 09:26:38 PM 42.3719 -71.3244 238° Southwest 388 447 28,000 -50 Level Boston Center
Tue 09:27:38 PM 42.3314 -71.4517 247° West 411 473 27,900  Descending Boston Center
Tue 09:28:38 PM 42.2683 -71.6406 246° West 444 511 28,000 950 Climbing Boston Center
Tue 09:29:38 PM 42.2194 -71.7953 247° West 454 522 29,800 2,300 Climbing Boston Center
Tue 09:30:38 PM 42.1742 -71.9469 248° West 454 522 32,600 2,100 Climbing Boston Center
Tue 09:31:38 PM 42.1269 -72.1014 248° West 454 522 34,000 700 Climbing Boston Center
Tue 09:32:38 PM 42.0772 -72.2611 247° West 459 528 34,000  Level Boston Center
Tue 09:33:38 PM 42.0272 -72.4206 247° West 459 528 34,000  Level Boston Center
Tue 09:34:38 PM 41.9753 -72.5742 246° West 459 528 34,000 -50 Level Boston Center
Tue 09:35:38 PM 41.9122 -72.7331 242° Southwest 448 516 33,900 -50 Descending Boston Center
Tue 09:36:38 PM 41.8222 -72.8525 225° Southwest 451 519 33,900 50 Level Boston Center
Tue 09:37:38 PM 41.7364 -72.9686 225° Southwest 470 541 34,000  Climbing Boston Center
Tue 09:39:41 PM 41.5569 -73.2136 226° Southwest 469 540 33,900 -33 Descending New York Center
Tue 09:40:40 PM 41.4692 -73.3350 226° Southwest 464 534 33,900  Level New York Center
Tue 09:41:41 PM 41.3769 -73.4558 225° Southwest 464 534 33,900  Level New York Center
Tue 09:42:41 PM 41.2844 -73.5819 226° Southwest 470 541 33,900 51 Level New York Center
Tue 09:43:39 PM 41.2061 -73.7136 232° Southwest 470 541 34,000  Climbing New York Center
Tue 09:44:40 PM 41.1256 -73.8478 231° Southwest 470 541 33,900 -49 Descending New York Center
Tue 09:45:41 PM 41.0450 -73.9817 231° Southwest 470 541 33,900  Level New York Center
Tue 09:46:42 PM 40.9664 -74.1153 232° Southwest 470 541 33,900 -1,322 Level New York Center
Tue 09:47:39 PM 40.8769 -74.2564 230° Southwest 470 541 31,300 -2,847 Descending New York Center
Tue 09:48:40 PM 40.8000 -74.3842 232° Southwest 464 534 28,300 -1,672 Descending New York Center
Tue 09:49:41 PM 40.7275 -74.5061 232° Southwest 449 517 27,900 -197 Descending New York Center
Tue 09:50:42 PM 40.6528 -74.6278 231° Southwest 437 503 27,900 50 Level New York Center
Tue 09:51:40 PM 40.5803 -74.7442 231° Southwest 432 497 28,000 -51 Climbing New York Center
Tue 09:52:40 PM 40.4989 -74.8622 228° Southwest 432 497 27,800 -600 Descending New York Center
Tue 09:53:40 PM 40.4200 -74.9747 227° Southwest 438 504 26,800 -1,438 Descending New York Center
Tue 09:54:41 PM 40.3389 -75.0869 227° Southwest 433 498 24,900 -2,213 Descending New York Center
Tue 09:55:42 PM 40.2639 -75.1964 228° Southwest 422 486 22,300 -2,593 Descending New York Center
Tue 09:56:39 PM 40.1892 -75.2978 226° Southwest 411 473 19,800 -2,186 Descending New York Center
Tue 09:57:40 PM 40.1144 -75.3986 226° Southwest 400 460 18,000 -893 Descending New York Center
Tue 09:58:40 PM 40.0503 -75.4892 227° Southwest 381 438 18,000  Level New York Center
Tue 09:59:41 PM 39.9689 -75.5975 226° Southwest 381 438 18,000 -99 Level New York Center
Tue 10:00:41 PM 39.9067 -75.6933 230° Southwest 387 445 17,800 -1,167 Descending New York Center
Tue 10:02:41 PM 39.7833 -75.9333 236° Southwest 383 441 14,500 -1,667 Descending Potomac TRACON
Tue 10:03:41 PM 39.7167 -76.0500 233° Southwest 373 429 12,800 -1,700 Descending Potomac TRACON
Tue 10:04:41 PM 39.6667 -76.1667 241° Southwest 362 417 11,100 -1,737 Descending Potomac TRACON
Tue 10:05:35 PM 39.6167 -76.2667 237° Southwest 354 407 9,500 -1,250 Descending Potomac TRACON
Tue 10:06:41 PM 39.5667 -76.3667 237° Southwest 302 348 8,600 -1,227 Descending Potomac TRACON
Tue 10:07:47 PM 39.5167 -76.4667 237° Southwest 282 325 6,800 -1,606 Descending Potomac TRACON
Tue 10:08:48 PM 39.4833 -76.5500 243° Southwest 284 327 5,200 -1,461 Descending Potomac TRACON
Tue 10:09:42 PM 39.4500 -76.6333 243° Southwest 275 316 4,000 -632 Descending Potomac TRACON
Tue 10:10:42 PM 39.4000 -76.7000 226° Southwest 267 307 4,000 -517 Level Potomac TRACON
Tue 10:12:00 PM 39.2707 -76.6817 174° South  Level Estimated
Tue 10:12:36 PM 39.3000 -76.7667 174° South 223 257 2,500  Level Potomac TRACON
Tue 10:13:36 PM 39.2500 -76.7667 180° South 168 193 2,500 -263 Level Potomac TRACON
Tue 10:14:30 PM 39.2000 -76.7667 180° South 152 175 2,000 -700 Descending Potomac TRACON
Tue 10:15:36 PM 39.1833 -76.7500 142° Southeast 119 137 1,100 -650 Descending Potomac TRACON
Tue 10:16:30 PM 39.1833 -76.7167 90° East 107 123 700 -444 Descending Potomac TRACON
Tue 10:18:00 PM 39.1667 -76.6667 270° West  Level FlightAware Approximate
Tue 10:25:00 PM 39.1754 -76.6683 270° West  Level Estimated
Tue 10:26:00 PM 39.1754 -76.6683 270° West  Level Estimated
Tue 10:27:00 PM 39.1754 -76.6683 270° West  Level Estimated
Tue 10:28:00 PM 39.1754 -76.6683 270° West  Level Estimated

Login

Don't have an account? Register now (free) for customized features, flight alerts, and more!